Latest Weather Observations for Essendon Airport

IDV60801

Issued at 7:32 am EDT Friday 24 February 2017 (issued every 30 minutes, with the page automatically refreshed every 10 minutes)

About weather observations | Map of weather stations | Latest weather observations for VIC | Other Formats
Station Details ID: 086038 Name: ESSENDON AIRPORT Lat: -37.73 Lon: 144.91 Height: 78.4 m
Data from the previous 72 hours. | See also: Recent months at Essendon Airport
Date/Time
EDT
Temp
°C
App
Temp
°C
Dew
Point
°C
Rel
Hum
%
Delta-T
°C
Wind Press
QNH
hPa
Press
MSL
hPa
Rain since
9am
mm
Dir  Spd
km/h
Gust
km/h
Spd
kts
Gust
kts
24/07:30am 15.4 13.2 13.4 88 1.1 SSW 17 22 9 12 1023.5 1023.3 0.4
24/07:00am 15.4 13.5 14.1 92 0.7 SW 17 20 9 11 1023.1 1022.9 0.4
24/06:57am 15.4 13.5 14.1 92 0.7 SW 17 19 9 10 1023.1 1022.9 0.4
24/06:30am 15.2 13.7 14.1 93 0.6 SW 15 20 8 11 1022.9 1022.7 0.4
24/06:19am 15.2 13.7 14.2 94 0.6 SW 15 19 8 10 1022.8 1022.6 0.4
24/06:00am 15.2 13.8 14.6 96 0.3 SSW 15 20 8 11 1022.7 1022.5 0.4
24/05:30am 15.2 12.9 14.6 96 0.3 SSW 20 26 11 14 1022.4 1022.2 0.4
24/05:19am 15.6 14.4 15.1 97 0.3 SSW 15 24 8 13 1022.2 1022.0 0.4
24/05:17am 15.6 14.8 15.1 97 0.3 SSW 13 22 7 12 1022.2 1022.0 0.4
24/05:00am 15.6 15.7 15.4 99 0.1 S 9 13 5 7 1022.1 1021.9 0.4
24/04:30am 15.5 14.8 15.3 99 0.1 S 13 22 7 12 1022.2 1022.0 0.4
24/04:07am 15.6 14.1 15.4 99 0.1 SSW 17 26 9 14 1022.3 1022.1 0.4
24/04:00am 15.7 15.0 15.5 99 0.1 SSW 13 17 7 9 1022.3 1022.1 0.4
24/03:53am 15.6 14.9 15.4 99 0.1 S 13 19 7 10 1022.3 1022.1 0.4
24/03:38am 15.6 14.1 15.4 99 0.1 SSW 17 20 9 11 1022.5 1022.3 0.2
24/03:30am 15.8 14.4 15.6 99 0.1 SSW 17 22 9 12 1022.5 1022.3 0.2
24/03:27am 15.8 14.4 15.6 99 0.1 SSW 17 22 9 12 1022.5 1022.3 0.2
24/03:15am 15.7 14.3 15.5 99 0.1 S 17 20 9 11 1022.5 1022.3 0.2
24/03:00am 15.7 13.2 15.2 97 0.3 S 22 30 12 16 1022.6 1022.4 0.0
24/02:53am 15.9 13.8 15.3 96 0.3 SSW 20 28 11 15 1022.6 1022.4 0.0
24/02:50am 16.0 14.1 15.2 95 0.5 SSW 19 28 10 15 1022.5 1022.3 0.0
24/02:30am 16.0 14.0 15.4 96 0.3 SSW 20 28 11 15 1022.4 1022.2 0.0
24/02:00am 16.4 14.6 15.4 94 0.6 SSW 19 26 10 14 1022.6 1022.4 0.0
24/01:35am 16.6 15.5 15.3 92 0.8 S 15 24 8 13 1022.7 1022.5 0.0
24/01:30am 16.6 15.5 15.3 92 0.8 SSE 15 22 8 12 1022.7 1022.5 0.0
24/01:11am 16.7 14.7 14.9 89 1.0 S 19 28 10 15 1022.9 1022.7 0.0
24/01:00am 16.7 15.1 14.9 89 1.0 S 17 24 9 13 1022.8 1022.6 0.0
24/12:30am 17.0 14.9 14.8 87 1.3 SSE 19 24 10 13 1022.8 1022.6 0.0
24/12:00am 17.6 15.4 14.3 81 1.9 SSE 19 24 10 13 1022.6 1022.4 0.0
 
Date/Time
EDT
Temp
°C
App
Temp
°C
Dew
Point
°C
Rel
Hum
%
Delta-T
°C
Wind Press
QNH
hPa
Press
MSL
hPa
Rain since
9am
mm
Dir  Spd
km/h
Gust
km/h
Spd
kts
Gust
kts
23/11:30pm 17.7 15.4 14.6 82 1.8 S 20 28 11 15 1022.6 1022.4 0.0
23/11:14pm 17.5 15.4 14.8 84 1.6 S 19 26 10 14 1022.6 1022.4 0.0
23/11:00pm 17.2 15.0 14.8 86 1.4 S 20 30 11 16 1022.6 1022.4 0.0
23/10:44pm 18.1 15.7 14.4 79 2.1 S 20 26 11 14 1022.4 1022.2 0.0
23/10:34pm 18.0 15.2 14.3 79 2.1 S 22 28 12 15 1022.4 1022.2 0.0
23/10:30pm 18.1 15.7 14.4 79 2.1 S 20 26 11 14 1022.4 1022.2 0.0
23/10:00pm 18.3 16.1 14.8 80 2.0 S 20 30 11 16 1022.4 1022.2 0.0
23/09:30pm 18.0 15.3 14.7 81 1.9 S 22 32 12 17 1022.0 1021.8 0.0
23/09:11pm 18.1 15.0 14.6 80 2.0 S 24 32 13 17 1021.7 1021.5 0.0
23/09:00pm 18.1 15.0 14.4 79 2.1 S 24 32 13 17 1021.4 1021.2 0.0
23/08:43pm 18.3 15.2 14.4 78 2.3 S 24 33 13 18 1021.1 1020.9 0.0
23/08:30pm 18.4 15.6 14.3 77 2.4 S 22 30 12 16 1020.9 1020.7 0.0
23/08:00pm 18.8 14.7 13.9 73 2.8 S 28 39 15 21 1020.3 1020.1 0.0
23/07:30pm 19.7 15.1 13.6 68 3.5 S 30 41 16 22 1019.7 1019.5 0.0
23/07:00pm 21.4 18.0 13.6 61 4.5 S 24 32 13 17 1019.2 1019.0 0.0
23/06:30pm 22.8 19.7 12.1 51 6.1 S 20 28 11 15 1018.8 1018.6 0.0
23/06:00pm 23.6 19.9 11.6 47 6.8 S 22 30 12 16 1018.4 1018.1 0.0
23/05:30pm 24.1 20.4 11.4 45 7.2 S 22 30 12 16 1018.1 1017.8 0.0
23/05:00pm 24.6 21.1 10.8 42 7.7 S 20 26 11 14 1017.9 1017.6 0.0
23/04:30pm 24.3 21.0 11.6 45 7.2 S 20 28 11 15 1017.7 1017.4 0.0
23/04:00pm 24.8 21.4 11.4 43 7.6 S 20 30 11 16 1017.8 1017.5 0.0
23/03:30pm 24.1 21.1 12.4 48 6.7 SSE 20 28 11 15 1017.9 1017.6 0.0
23/03:00pm 24.6 21.4 11.9 45 7.2 SSE 20 30 11 16 1018.0 1017.7 0.0
23/02:30pm 24.3 21.1 11.3 44 7.3 S 19 28 10 15 1017.9 1017.6 0.0
23/02:00pm 24.9 23.5 10.8 41 7.9 SSE 9 20 5 11 1017.9 1017.6 0.0
23/01:30pm 23.9 21.6 10.6 43 7.4 SSW 13 22 7 12 1018.1 1017.8 0.0
23/01:00pm 24.6 22.0 10.8 42 7.7 SW 15 35 8 19 1018.2 1017.9 0.0
23/12:30pm 23.5 20.3 11.2 46 6.9 SW 19 30 10 16 1018.3 1018.0 0.0
23/12:00pm 23.6 20.7 11.0 45 7.0 WSW 17 26 9 14 1018.4 1018.1 0.0
23/11:30am 22.9 19.6 11.0 47 6.6 W 19 32 10 17 1018.4 1018.1 0.0
23/11:00am 21.7 18.3 11.4 52 5.7 WSW 20 30 11 16 1018.3 1018.0 0.0
23/10:30am 22.3 19.1 12.0 52 5.8 WSW 20 28 11 15 1018.1 1017.8 0.0
23/10:00am 20.3 17.2 11.5 57 4.9 SW 19 28 10 15 1017.9 1017.6 0.0
23/09:30am 20.3 16.2 11.5 57 4.9 SW 24 32 13 17 1017.4 1017.1 0.0
23/09:00am 19.8 17.3 11.0 57 4.8 SW 15 20 8 11 1017.1 1016.8 0.0
23/08:30am 18.2 15.9 11.7 66 3.6 WSW 15 17 8 9 1016.7 1016.4 0.0
23/08:00am 16.9 15.5 12.2 74 2.6 NW 11 17 6 9 1016.2 1015.9 0.0
23/07:30am 15.8 14.4 12.2 79 2.0 NW 11 15 6 8 1015.5 1015.2 0.0
23/07:00am 15.4 14.4 12.3 82 1.7 NW 9 13 5 7 1014.8 1014.6 0.0
23/06:30am 14.4 13.7 12.1 86 1.2 NW 7 9 4 5 1014.3 1014.1 0.0
23/06:00am 14.8 14.1 11.9 83 1.6 NW 7 9 4 5 1013.9 1013.7 0.0
23/05:30am 16.1 15.3 13.0 82 1.7 NW 9 11 5 6 1013.6 1013.4 0.0
23/05:00am 16.6 16.0 13.5 82 1.7 NW 9 9 5 5 1013.3 1013.1 0.0
23/04:30am 16.1 15.4 13.2 83 1.6 NNW 9 11 5 6 1013.0 1012.8 0.0
23/04:00am 17.3 17.2 14.0 81 1.9 NNE 7 9 4 5 1013.0 1012.8 0.0
23/03:30am 17.0 16.9 13.9 82 1.8 ENE 7 9 4 5 1012.9 1012.7 0.0
23/03:00am 17.1 17.2 14.0 82 1.8 ENE 6 7 3 4 1012.9 1012.7 0.0
23/02:30am 16.6 16.2 13.1 80 2.0 E 7 9 4 5 1012.8 1012.6 0.0
23/02:00am 17.5 18.7 13.8 79 2.1 CALM 0 0 0 0 1012.7 1012.5 0.0
23/01:30am 17.7 18.1 13.6 77 2.3 ENE 4 7 2 4 1012.6 1012.4 0.0
23/01:00am 17.9 17.8 13.2 74 2.7 SW 6 7 3 4 1012.4 1012.2 0.0
23/12:30am 18.6 17.7 13.7 73 2.8 SSW 11 15 6 8 1012.0 1011.8 0.0
23/12:00am 19.0 17.2 13.4 70 3.2 SSW 15 20 8 11 1011.8 1011.6 0.0
 
Date/Time
EDT
Temp
°C
App
Temp
°C
Dew
Point
°C
Rel
Hum
%
Delta-T
°C
Wind Press
QNH
hPa
Press
MSL
hPa
Rain since
9am
mm
Dir  Spd
km/h
Gust
km/h
Spd
kts
Gust
kts
22/11:30pm 19.8 14.8 13.5 67 3.6 SSW 32 43 17 23 1011.3 1011.1 0.0
22/11:15pm 20.4 15.0 12.9 62 4.3 SSW 33 44 18 24 1010.8 1010.6 0.0
22/11:00pm 22.2 15.5 9.7 45 6.8 SW 35 56 19 30 1010.1 1009.9 0.0
22/10:58pm 23.1 17.0 8.4 39 7.8 WSW 30 54 16 29 1010.1 1009.9 0.0
22/10:55pm 24.6 19.3 4.9 28 9.9 W 22 41 12 22 1010.0 1009.8 0.0
22/10:30pm 26.7 22.2 -0.3 17 12.6 N 13 19 7 10 1008.8 1008.6 0.0
22/10:00pm 27.7 22.4 -0.4 16 13.2 NNE 17 22 9 12 1008.4 1008.2 0.0
22/09:30pm 27.5 22.6 -0.5 16 13.1 NNE 15 17 8 9 1008.3 1008.1 0.0
22/09:00pm 28.9 23.9 -1.2 14 14.0 N 15 20 8 11 1008.2 1008.0 0.0
22/08:30pm 29.7 24.6 -1.6 13 14.5 N 15 20 8 11 1008.0 1007.8 0.0
22/08:00pm 31.1 25.3 -1.6 12 15.4 N 19 24 10 13 1008.0 1007.8 0.0
22/07:30pm 32.4 24.7 -3.1 10 16.4 N 28 37 15 20 1007.6 1007.3 0.0
22/07:00pm 33.1 25.1 -2.6 10 16.8 N 30 44 16 24 1007.7 1007.5 0.0
22/06:30pm 33.6 25.8 -0.9 11 16.7 N 30 46 16 25 1008.2 1008.0 0.0
22/06:05pm 33.3 25.8 -1.1 11 16.5 N 28 46 15 25 1008.5 1008.3 0.0
22/06:00pm 33.3 26.2 -1.1 11 16.6 N 26 43 14 23 1008.5 1008.3 0.0
22/05:34pm 33.5 25.5 0.2 12 16.4 N 32 50 17 27 1008.7 1008.5 0.0
22/05:30pm 33.5 25.3 0.2 12 16.4 N 33 46 18 25 1008.8 1008.6 0.0
22/05:05pm 31.9 23.7 0.1 13 15.5 N 33 52 18 28 1008.7 1008.5 0.0
22/05:00pm 32.1 24.1 0.2 13 15.6 N 32 46 17 25 1008.9 1008.7 0.0
22/04:45pm 32.0 24.7 0.2 13 15.5 N 28 48 15 26 1009.0 1008.8 0.0
22/04:30pm 32.3 24.3 0.4 13 15.6 N 32 48 17 26 1009.3 1009.1 0.0
22/04:15pm 31.8 23.9 1.0 14 15.2 N 32 50 17 27 1009.2 1009.0 0.0
22/04:00pm 32.4 23.8 0.5 13 15.7 N 35 52 19 28 1009.6 1009.4 0.0
22/03:30pm 31.8 24.4 2.0 15 14.9 NNE 30 46 16 25 1009.6 1009.4 0.0
22/03:00pm 31.8 24.4 3.8 17 14.5 NNE 32 50 17 27 1010.5 1010.3 0.0
22/02:34pm 31.0 23.3 2.3 16 14.4 N 32 54 17 29 1011.5 1011.3 0.0
22/02:30pm 31.3 23.4 2.5 16 14.5 N 33 44 18 24 1011.6 1011.4 0.0
22/02:02pm 31.1 23.6 3.2 17 14.2 N 32 50 17 27 1012.0 1011.8 0.0
22/02:00pm 30.9 23.0 2.2 16 14.4 N 33 50 18 27 1012.0 1011.8 0.0
22/01:30pm 29.6 21.4 2.8 18 13.4 N 35 56 19 30 1012.4 1012.2 0.0
22/01:01pm 29.1 21.3 3.1 19 13.1 N 33 52 18 28 1012.8 1012.6 0.0
22/01:00pm 29.6 21.9 3.6 19 13.2 N 33 50 18 27 1012.8 1012.6 0.0
22/12:30pm 28.2 20.1 3.1 20 12.5 N 35 48 19 26 1013.4 1013.2 0.0
22/12:18pm 28.1 20.5 3.0 20 12.5 N 32 56 17 30 1013.7 1013.5 0.0
22/12:00pm 27.5 20.6 4.5 23 11.7 N 30 46 16 25 1014.2 1014.0 0.0
22/11:54am 27.2 20.6 4.3 23 11.6 N 28 46 15 25 1014.2 1014.0 0.0
22/11:30am 26.7 20.3 5.1 25 11.1 N 28 43 15 23 1014.6 1014.4 0.0
22/11:03am 25.8 19.3 6.4 29 10.1 N 30 48 16 26 1014.9 1014.7 0.0
22/11:00am 26.0 20.0 7.1 30 10.0 N 28 37 15 20 1015.0 1014.8 0.0
22/10:30am 25.2 19.4 4.3 26 10.5 N 24 33 13 18 1015.4 1015.1 0.0
22/10:00am 23.8 17.0 3.2 26 10.0 N 28 39 15 21 1015.3 1015.0 0.0
22/09:30am 22.8 17.7 4.3 30 9.1 N 20 30 11 16 1015.4 1015.1 0.0
22/09:00am 20.6 17.3 6.2 39 7.2 NNE 13 17 7 9 1015.6 1015.3 0.0
22/08:30am 17.6 15.7 7.4 51 5.1 N 7 13 4 7 1015.6 1015.3 0.0
22/08:00am 13.4 11.9 8.5 72 2.5 NE 6 7 3 4 1015.6 1015.3 0.0
22/07:30am 10.9 8.8 6.5 74 2.1 NE 7 9 4 5 1015.5 1015.2 0.0
22/07:00am 10.5 7.5 5.9 73 2.1 ENE 11 11 6 6 1015.5 1015.2 0.0
22/06:30am 10.5 7.9 6.3 75 2.0 NE 9 11 5 6 1015.3 1015.0 0.0
22/06:00am 10.5 7.8 7.4 81 1.5 ENE 11 13 6 7 1015.0 1014.8 0.0
22/05:30am 11.3 9.2 8.2 81 1.5 ENE 9 9 5 5 1015.2 1014.9 0.0
22/05:00am 12.3 10.8 9.0 80 1.7 NNE 7 9 4 5 1015.3 1015.0 0.0
22/04:30am 12.7 10.9 9.5 81 1.6 NNE 9 11 5 6 1015.6 1015.3 0.0
22/04:00am 11.8 10.0 9.4 85 1.2 NE 9 13 5 7 1015.9 1015.6 0.0
22/03:30am 12.0 9.9 9.7 86 1.2 NNE 11 13 6 7 1016.1 1015.8 0.0
22/03:00am 12.5 11.2 9.9 84 1.3 NE 7 9 4 5 1016.4 1016.1 0.0
22/02:30am 12.9 11.8 9.9 82 1.5 NE 6 9 3 5 1016.7 1016.4 0.0
22/02:00am 13.5 12.3 10.3 81 1.7 N 7 9 4 5 1016.9 1016.6 0.0
22/01:30am 13.8 12.1 10.0 78 2.0 NNW 9 11 5 6 1017.3 1017.0 0.0
22/01:00am 14.7 12.4 10.3 75 2.3 NW 13 15 7 8 1017.7 1017.4 0.0
22/12:30am 15.0 12.7 10.4 74 2.4 NW 13 15 7 8 1018.0 1017.7 0.0
22/12:00am 15.3 14.6 10.1 71 2.7 NW 4 11 2 6 1018.2 1017.9 0.0
 
Date/Time
EDT
Temp
°C
App
Temp
°C
Dew
Point
°C
Rel
Hum
%
Delta-T
°C
Wind Press
QNH
hPa
Press
MSL
hPa
Rain since
9am
mm
Dir  Spd
km/h
Gust
km/h
Spd
kts
Gust
kts
21/11:30pm 16.4 16.6 10.7 69 3.0 CALM 0 0 0 0 1018.2 1017.9 0.0
21/11:00pm 16.5 15.5 10.4 67 3.2 SSE 6 7 3 4 1018.4 1018.1 0.0
21/10:30pm 17.4 16.3 10.8 65 3.6 SSE 7 9 4 5 1018.4 1018.1 0.0
21/10:00pm 17.7 15.4 10.6 63 3.8 SE 13 17 7 9 1018.3 1018.0 0.0
21/09:30pm 18.6 16.0 10.7 60 4.3 ESE 15 20 8 11 1018.1 1017.8 0.0
21/09:00pm 19.2 16.5 10.5 57 4.7 ESE 15 20 8 11 1017.8 1017.5 0.0
21/08:30pm 20.0 16.8 10.1 53 5.3 ESE 17 20 9 11 1017.5 1017.2 0.0
21/08:00pm 21.3 17.8 10.2 49 6.0 SE 19 24 10 13 1017.2 1016.9 0.0
21/07:30pm 21.6 18.5 10.4 49 6.1 S 17 20 9 11 1017.0 1016.7 0.0
21/07:00pm 22.6 18.7 9.4 43 7.1 S 20 28 11 15 1017.2 1016.9 0.0
21/06:30pm 23.5 19.3 7.6 36 8.4 SSE 19 26 10 14 1017.2 1016.9 0.0
21/06:00pm 23.8 19.3 6.1 32 9.1 SSE 19 26 10 14 1017.2 1016.9 0.0
21/05:30pm 23.4 18.8 5.8 32 8.9 SSE 19 28 10 15 1017.3 1017.0 0.0
21/05:00pm 23.0 17.9 5.9 33 8.7 SSE 22 28 12 15 1017.8 1017.5 0.0
21/04:30pm 23.0 17.7 6.7 35 8.4 S 24 32 13 17 1018.2 1017.9 0.0
21/04:00pm 23.2 19.2 6.5 34 8.6 SE 17 26 9 14 1018.4 1018.1 0.0
21/03:30pm 23.7 20.5 3.1 26 10.0 ESE 9 19 5 10 1018.8 1018.6 0.0
21/03:00pm 23.0 19.8 3.0 27 9.6 NNE 9 13 5 7 1019.3 1019.1 0.0
21/02:30pm 22.5 19.7 3.1 28 9.3 E 7 11 4 6 1019.7 1019.5 0.0
21/02:00pm 21.1 18.5 4.2 33 8.2 SSW 7 11 4 6 1020.0 1019.8 0.0
21/01:30pm 20.7 18.0 3.9 33 8.1 NE 7 15 4 8 1020.4 1020.2 0.0
21/01:00pm 20.6 18.6 6.2 39 7.2 SE 6 9 3 5 1021.0 1020.8 0.0
21/12:30pm 19.9 17.7 6.3 41 6.8 ESE 7 13 4 7 1021.3 1021.1 0.0
21/12:00pm 18.9 16.2 7.4 47 5.8 S 11 13 6 7 1021.6 1021.4 0.0
21/11:30am 18.2 15.9 7.6 50 5.4 SW 9 13 5 7 1021.5 1021.3 0.0
21/11:00am 18.4 16.8 8.1 51 5.3 SW 6 11 3 6 1021.7 1021.5 0.0
21/10:30am 17.1 15.7 8.8 58 4.3 SSE 6 11 3 6 1022.0 1021.8 0.0
21/10:00am 16.1 14.5 8.8 62 3.7 WNW 7 11 4 6 1022.1 1021.9 0.0
21/09:30am 14.7 13.2 8.4 66 3.2 WSW 6 11 3 6 1021.8 1021.6 0.0
21/09:00am 14.2 12.6 8.6 69 2.8 NW 7 11 4 6 1021.5 1021.3 0.2
21/08:30am 12.1 10.4 8.4 78 1.8 N 7 11 4 6 1021.3 1021.1 0.2
21/08:00am 10.1 7.1 7.7 85 1.2 N 13 15 7 8 1021.0 1020.8 0.2

Other Formats:

Comma delimited format used in spreadsheet applications
http://www.bom.gov.au/fwo/IDV60801/IDV60801.95866.axf

JavaScript Object Notation format (JSON) in row-major order
http://www.bom.gov.au/fwo/IDV60801/IDV60801.95866.json